Time;durP1;ratioP1;P1;durP2;ratioP2;P2;SDS_P1;SDS_P2;PMS_P1;PMS_P2;Temp;Humidity;BMP_temperature;BMP_pressure;BME280_temperature;BME280_humidity;BME280_pressure;Samples;Min_cycle;Max_cycle;Signal;HPM_P1;HPM_P2
2022/07/27 00:00:32;;;;;;;9.07;2.30;;;17.80;99.90;;;;;;5037162;28;20066;-62
2022/07/27 00:02:58;;;;;;;6.00;1.70;;;17.80;99.90;;;;;;5046531;28;20100;-62
2022/07/27 00:05:23;;;;;;;3.50;1.20;;;17.80;99.90;;;;;;5049965;28;20029;-62
2022/07/27 00:07:49;;;;;;;5.35;1.00;;;17.70;99.90;;;;;;5036424;28;20037;-62
2022/07/27 00:10:15;;;;;;;5.25;1.50;;;17.70;99.90;;;;;;5050463;28;20036;-62
2022/07/27 00:12:41;;;;;;;4.35;1.27;;;17.70;99.90;;;;;;5040719;28;20503;-63
2022/07/27 00:15:08;;;;;;;4.20;1.33;;;17.60;99.90;;;;;;5029238;28;20053;-61
2022/07/27 00:17:33;;;;;;;7.10;1.40;;;17.60;99.90;;;;;;5039351;28;20033;-62
2022/07/27 00:19:59;;;;;;;4.90;1.20;;;17.50;99.90;;;;;;5042242;28;20026;-62
2022/07/27 00:22:24;;;;;;;10.02;1.60;;;17.50;99.90;;;;;;5034038;28;20043;-61
2022/07/27 00:24:50;;;;;;;5.70;1.40;;;17.50;99.90;;;;;;5043942;28;20037;-61
2022/07/27 00:27:16;;;;;;;10.35;1.85;;;17.50;99.90;;;;;;5045799;28;20033;-61
2022/07/27 00:29:41;;;;;;;6.88;1.50;;;17.50;99.90;;;;;;5045249;28;20021;-61
2022/07/27 00:32:07;;;;;;;9.73;1.50;;;17.40;99.90;;;;;;5040854;28;20103;-61
2022/07/27 00:34:33;;;;;;;10.80;1.40;;;17.40;99.90;;;;;;5042537;28;20033;-61
2022/07/27 00:36:59;;;;;;;3.15;0.90;;;17.40;99.90;;;;;;5038328;28;20101;-62
2022/07/27 00:39:24;;;;;;;9.25;1.60;;;17.40;99.90;;;;;;5039449;28;20041;-62
2022/07/27 00:41:50;;;;;;;5.40;1.75;;;17.30;99.90;;;;;;5049906;28;20067;-61
2022/07/27 00:44:29;;;;;;;5.40;1.50;;;17.30;99.90;;;;;;5044333;28;20554;-62
2022/07/27 00:46:55;;;;;;;5.28;1.30;;;17.30;99.90;;;;;;5035907;28;20041;-62
2022/07/27 00:49:22;;;;;;;3.95;1.10;;;17.30;99.90;;;;;;5045524;28;20057;-62
2022/07/27 00:51:49;;;;;;;4.88;1.02;;;17.20;99.90;;;;;;5039835;28;20090;-62
2022/07/27 00:54:15;;;;;;;8.13;1.52;;;17.20;99.90;;;;;;5038581;28;20037;-62
2022/07/27 00:56:41;;;;;;;7.88;1.35;;;17.10;99.90;;;;;;5042151;28;20029;-62
2022/07/27 00:59:08;;;;;;;7.65;1.50;;;17.10;99.90;;;;;;5044123;28;20372;-62
2022/07/27 01:01:34;;;;;;;6.00;1.25;;;17.10;99.90;;;;;;5044393;28;20033;-62
2022/07/27 01:04:00;;;;;;;3.75;1.40;;;17.10;99.90;;;;;;5042069;28;20033;-60
2022/07/27 01:06:27;;;;;;;7.50;1.35;;;17.00;99.90;;;;;;5041782;28;20036;-62
2022/07/27 01:09:55;;;;;;;7.78;1.60;;;17.00;99.90;;;;;;5029892;28;20025;-62
2022/07/27 01:11:38;;;;;;;4.30;1.40;;;17.00;99.90;;;;;;5048559;28;20029;-62
2022/07/27 01:14:05;;;;;;;3.67;1.30;;;16.90;99.90;;;;;;5040902;28;20076;-62
2022/07/27 01:16:31;;;;;;;4.85;1.23;;;16.90;99.90;;;;;;5038744;28;20025;-62
2022/07/27 01:18:57;;;;;;;4.82;1.30;;;16.80;99.90;;;;;;5041837;28;20025;-62
2022/07/27 01:21:22;;;;;;;6.45;1.25;;;16.80;99.90;;;;;;5044724;28;20051;-61
2022/07/27 01:23:48;;;;;;;8.25;1.02;;;16.70;99.90;;;;;;5030045;28;20376;-62
2022/07/27 01:26:13;;;;;;;4.35;1.20;;;16.80;99.90;;;;;;5044457;28;20456;-62
2022/07/27 01:28:42;;;;;;;7.10;1.55;;;16.80;99.90;;;;;;5042762;28;20032;-63
2022/07/27 01:31:07;;;;;;;8.15;1.48;;;16.70;99.90;;;;;;5029619;28;20059;-65
2022/07/27 01:33:33;;;;;;;3.95;1.02;;;16.70;99.90;;;;;;5032646;28;20060;-60
2022/07/27 01:35:59;;;;;;;4.55;1.05;;;16.70;99.90;;;;;;5040489;28;20562;-61
2022/07/27 01:38:24;;;;;;;6.32;1.27;;;16.70;99.90;;;;;;5027383;28;20033;-62
2022/07/27 01:40:52;;;;;;;6.55;1.33;;;16.70;99.90;;;;;;5030298;28;20029;-62
2022/07/27 01:43:18;;;;;;;4.82;1.10;;;16.70;99.90;;;;;;5028784;28;20391;-62
2022/07/27 01:45:43;;;;;;;4.18;1.13;;;16.80;99.90;;;;;;5042629;28;20036;-61
2022/07/27 01:48:09;;;;;;;5.07;1.35;;;16.80;99.90;;;;;;5046520;28;20033;-62
2022/07/27 01:50:34;;;;;;;6.05;1.23;;;16.70;99.90;;;;;;5050704;28;20402;-61
2022/07/27 01:53:00;;;;;;;4.40;1.10;;;16.70;99.90;;;;;;5035772;28;20034;-61
2022/07/27 01:55:26;;;;;;;4.63;1.40;;;16.60;99.90;;;;;;5036769;28;20044;-62
2022/07/27 01:57:51;;;;;;;10.35;1.50;;;16.60;99.90;;;;;;5034260;28;20108;-62
2022/07/27 02:00:17;;;;;;;6.07;1.40;;;16.50;99.90;;;;;;5046396;28;20052;-62
2022/07/27 02:02:42;;;;;;;3.92;1.30;;;16.50;99.90;;;;;;5049168;28;20044;-62
2022/07/27 02:05:10;;;;;;;2.35;1.13;;;16.50;99.90;;;;;;5039178;28;20029;-62
2022/07/27 02:07:38;;;;;;;5.80;1.30;;;16.50;99.90;;;;;;5035200;28;20032;-62
2022/07/27 02:10:04;;;;;;;6.68;1.30;;;16.50;99.90;;;;;;5047881;28;20392;-62
2022/07/27 02:12:36;;;;;;;6.07;1.33;;;16.40;99.90;;;;;;5053671;28;20494;-61
2022/07/27 02:15:08;;;;;;;4.43;1.17;;;16.30;99.90;;;;;;5035863;28;20034;-62
2022/07/27 02:17:34;;;;;;;2.30;1.10;;;16.30;99.90;;;;;;5033328;28;20029;-63
2022/07/27 02:19:59;;;;;;;6.72;1.20;;;16.30;99.90;;;;;;5035999;28;20503;-62
2022/07/27 02:22:25;;;;;;;8.40;1.33;;;16.30;99.90;;;;;;5032833;28;20079;-62
2022/07/27 02:24:50;;;;;;;2.53;1.10;;;16.30;99.90;;;;;;5044437;28;20398;-62
2022/07/27 02:27:16;;;;;;;8.32;1.30;;;16.20;99.90;;;;;;5050940;28;20040;-63
2022/07/27 02:29:42;;;;;;;4.43;1.17;;;16.20;99.90;;;;;;5038357;28;20033;-62
2022/07/27 02:32:07;;;;;;;5.32;1.00;;;16.20;99.90;;;;;;5045339;28;20036;-63
2022/07/27 02:34:33;;;;;;;3.63;1.13;;;16.20;99.90;;;;;;5038482;28;20029;-63
2022/07/27 02:36:58;;;;;;;12.43;1.58;;;16.10;99.90;;;;;;5044314;28;20021;-63
2022/07/27 02:39:24;;;;;;;2.28;0.90;;;16.10;99.90;;;;;;5049437;28;20032;-62
2022/07/27 02:41:49;;;;;;;6.78;1.45;;;16.10;99.90;;;;;;5050834;28;20056;-63
2022/07/27 02:44:16;;;;;;;3.88;1.20;;;16.00;99.90;;;;;;5046220;28;20036;-62
2022/07/27 02:46:42;;;;;;;4.72;1.20;;;16.10;99.90;;;;;;5031009;28;20021;-63
2022/07/27 02:49:07;;;;;;;3.60;0.98;;;16.00;99.90;;;;;;5039254;22;20484;-64
2022/07/27 02:51:33;;;;;;;5.35;1.33;;;16.00;99.90;;;;;;5028562;28;20026;-65
2022/07/27 02:53:59;;;;;;;3.83;1.40;;;16.00;99.90;;;;;;5031756;28;20080;-64
2022/07/27 02:56:25;;;;;;;3.50;1.13;;;15.90;99.90;;;;;;5030423;28;20022;-66
2022/07/27 02:58:51;;;;;;;9.88;1.63;;;15.90;99.90;;;;;;5031599;28;20041;-64
2022/07/27 03:01:16;;;;;;;7.07;1.40;;;15.90;99.90;;;;;;5030511;28;20030;-65
2022/07/27 03:03:42;;;;;;;4.53;0.90;;;15.90;99.90;;;;;;5030396;28;20037;-64
2022/07/27 03:06:08;;;;;;;6.57;1.33;;;15.80;99.90;;;;;;5028269;28;20039;-65
2022/07/27 03:08:34;;;;;;;10.77;1.10;;;15.80;99.90;;;;;;5028889;28;20211;-65
2022/07/27 03:11:00;;;;;;;2.72;1.13;;;15.70;99.90;;;;;;5031932;28;20109;-64
2022/07/27 03:13:27;;;;;;;11.30;1.50;;;15.70;99.90;;;;;;5031296;28;20100;-66
2022/07/27 03:15:53;;;;;;;6.63;1.52;;;15.70;99.90;;;;;;5031055;28;20021;-65
2022/07/27 03:18:19;;;;;;;6.40;1.20;;;15.70;99.90;;;;;;5031232;28;20082;-65
2022/07/27 03:20:44;;;;;;;3.22;1.33;;;15.60;99.90;;;;;;5031691;28;20022;-67
2022/07/27 03:23:10;;;;;;;4.68;1.00;;;15.60;99.90;;;;;;5027256;28;20104;-66
2022/07/27 03:25:35;;;;;;;6.97;1.42;;;15.60;99.90;;;;;;5031746;28;20074;-65
2022/07/27 03:28:01;;;;;;;8.93;1.95;;;15.50;99.90;;;;;;5029828;28;20116;-65
2022/07/27 03:30:26;;;;;;;9.30;1.73;;;15.50;99.90;;;;;;5031860;28;20030;-64
2022/07/27 03:32:52;;;;;;;7.05;1.80;;;15.50;99.90;;;;;;5031250;28;20486;-63
2022/07/27 03:35:17;;;;;;;12.45;1.48;;;15.40;99.90;;;;;;5029285;28;20108;-66
2022/07/27 03:37:43;;;;;;;11.60;1.60;;;15.40;99.90;;;;;;5029592;28;20515;-65
2022/07/27 03:40:10;;;;;;;6.97;1.70;;;15.40;99.90;;;;;;5030314;28;20036;-66
2022/07/27 03:42:36;;;;;;;3.70;1.27;;;15.40;99.90;;;;;;5029799;28;20083;-66
2022/07/27 03:45:01;;;;;;;5.47;1.08;;;15.40;99.90;;;;;;5029653;28;20057;-66
2022/07/27 03:47:27;;;;;;;6.47;1.40;;;15.30;99.90;;;;;;5030269;28;20553;-64
2022/07/27 03:49:53;;;;;;;3.38;1.60;;;15.30;99.90;;;;;;5030948;28;20083;-66
2022/07/27 03:52:19;;;;;;;9.43;1.60;;;15.30;99.90;;;;;;5029157;28;20033;-65
2022/07/27 03:54:47;;;;;;;8.07;1.35;;;15.30;99.90;;;;;;5031022;28;20504;-67
2022/07/27 03:57:13;;;;;;;9.00;1.77;;;15.20;99.90;;;;;;5031160;28;20100;-65
2022/07/27 03:59:39;;;;;;;4.53;1.45;;;15.20;99.90;;;;;;5030925;28;20029;-65
2022/07/27 04:02:04;;;;;;;3.47;1.48;;;15.20;99.90;;;;;;5029609;28;20026;-65
2022/07/27 04:04:30;;;;;;;6.47;1.52;;;15.20;99.90;;;;;;5030617;28;20029;-64
2022/07/27 04:06:56;;;;;;;5.90;1.55;;;15.20;99.90;;;;;;5029021;28;20034;-65
2022/07/27 04:09:21;;;;;;;9.63;1.70;;;15.10;99.90;;;;;;5030012;28;20025;-65
2022/07/27 04:11:47;;;;;;;6.85;1.50;;;15.10;99.90;;;;;;5028797;28;20037;-70
2022/07/27 04:14:13;;;;;;;6.43;1.45;;;15.10;99.90;;;;;;5029279;28;20034;-66
2022/07/27 04:16:39;;;;;;;5.47;1.75;;;15.00;99.90;;;;;;5009814;28;20120;-66
2022/07/27 04:19:05;;;;;;;8.52;1.67;;;15.00;99.90;;;;;;5029017;28;20053;-66
2022/07/27 04:21:31;;;;;;;4.95;1.30;;;14.90;99.90;;;;;;5026889;28;20022;-64
2022/07/27 04:23:57;;;;;;;6.47;1.27;;;14.90;99.90;;;;;;5029523;28;20021;-63
2022/07/27 04:26:22;;;;;;;7.40;1.60;;;14.80;99.90;;;;;;5030343;28;20388;-64
2022/07/27 04:28:48;;;;;;;7.78;1.75;;;14.80;99.90;;;;;;5030132;28;20021;-65
2022/07/27 04:31:15;;;;;;;6.25;1.30;;;14.80;99.90;;;;;;5018860;28;20038;-65
2022/07/27 04:33:41;;;;;;;6.38;1.58;;;14.80;99.90;;;;;;5029903;28;20029;-65
2022/07/27 04:36:08;;;;;;;9.27;1.80;;;14.80;99.90;;;;;;5030294;28;20349;-65
2022/07/27 04:38:33;;;;;;;2.53;1.60;;;14.70;99.90;;;;;;5028587;28;20032;-64
2022/07/27 04:40:59;;;;;;;5.13;1.70;;;14.70;99.90;;;;;;5030028;28;20013;-66
2022/07/27 04:43:24;;;;;;;9.98;1.73;;;14.70;99.90;;;;;;5028290;28;20033;-65
2022/07/27 04:45:50;;;;;;;8.52;1.92;;;14.70;99.90;;;;;;5029270;28;20110;-64
2022/07/27 04:48:15;;;;;;;8.23;1.80;;;14.70;99.90;;;;;;5030017;28;20106;-65
2022/07/27 04:50:43;;;;;;;7.60;1.95;;;14.70;99.90;;;;;;5026034;28;20040;-66
2022/07/27 04:53:09;;;;;;;10.27;1.80;;;14.60;99.90;;;;;;5023817;28;20044;-62
2022/07/27 04:55:36;;;;;;;4.10;1.77;;;14.60;99.90;;;;;;5030489;28;20025;-64
2022/07/27 04:58:01;;;;;;;8.25;2.00;;;14.70;99.90;;;;;;5023941;28;20041;-63
2022/07/27 05:00:27;;;;;;;3.65;1.67;;;14.70;99.90;;;;;;5029420;28;20041;-63
2022/07/27 05:02:53;;;;;;;9.63;2.03;;;14.70;99.90;;;;;;5028065;28;20034;-63
2022/07/27 05:05:18;;;;;;;8.77;2.13;;;14.70;99.90;;;;;;5030198;28;20104;-64
2022/07/27 05:07:44;;;;;;;6.30;1.98;;;14.80;99.90;;;;;;5027439;28;20032;-64
2022/07/27 05:10:10;;;;;;;6.70;2.10;;;14.80;99.90;;;;;;5030206;28;20104;-64
2022/07/27 05:12:36;;;;;;;6.53;2.00;;;14.70;99.90;;;;;;5029715;28;20468;-62
2022/07/27 05:15:02;;;;;;;4.60;1.75;;;14.70;99.90;;;;;;5030063;28;20030;-62
2022/07/27 05:17:28;;;;;;;6.93;2.03;;;14.80;99.90;;;;;;5028996;28;20529;-64
2022/07/27 05:19:53;;;;;;;8.32;2.17;;;14.80;99.90;;;;;;5028620;28;20021;-64
2022/07/27 05:22:19;;;;;;;5.05;1.90;;;14.80;99.90;;;;;;5025883;28;20495;-63
2022/07/27 05:24:44;;;;;;;8.10;2.10;;;14.80;99.90;;;;;;5030045;28;20033;-63
2022/07/27 05:27:11;;;;;;;12.05;1.90;;;14.80;99.90;;;;;;5028432;28;20063;-62
2022/07/27 05:29:37;;;;;;;6.43;1.95;;;14.90;99.90;;;;;;5030193;28;20022;-63
2022/07/27 05:32:03;;;;;;;5.55;2.30;;;14.90;99.90;;;;;;5030582;28;20084;-62
2022/07/27 05:34:29;;;;;;;6.88;2.15;;;14.90;99.90;;;;;;5030191;28;20021;-61
2022/07/27 05:36:55;;;;;;;9.77;2.45;;;14.90;99.90;;;;;;5010069;28;20030;-64
2022/07/27 05:39:21;;;;;;;5.85;2.53;;;14.90;99.90;;;;;;5025097;28;20029;-63
2022/07/27 05:41:47;;;;;;;8.15;2.90;;;14.90;99.90;;;;;;5029735;28;20080;-63
2022/07/27 05:44:12;;;;;;;10.02;2.58;;;15.00;99.90;;;;;;5029966;28;20033;-62
2022/07/27 05:46:38;;;;;;;15.77;2.92;;;15.00;99.90;;;;;;5027838;28;20033;-63
2022/07/27 05:49:03;;;;;;;14.32;2.88;;;15.00;99.90;;;;;;5030215;28;20137;-61
2022/07/27 05:51:30;;;;;;;10.45;2.90;;;15.00;99.90;;;;;;5028925;28;20052;-62
2022/07/27 05:53:56;;;;;;;10.20;3.22;;;15.00;99.90;;;;;;5027038;28;20034;-62
2022/07/27 05:56:22;;;;;;;8.68;3.15;;;15.00;99.90;;;;;;5029562;28;20022;-63
2022/07/27 05:58:48;;;;;;;13.25;3.15;;;15.10;99.90;;;;;;5028691;28;20403;-63
2022/07/27 06:01:13;;;;;;;10.80;3.35;;;15.10;99.90;;;;;;5029335;28;20022;-63
2022/07/27 06:03:39;;;;;;;14.77;3.45;;;15.20;99.90;;;;;;5029444;28;20018;-62
2022/07/27 06:08:48;;;;;;;8.13;2.97;;;15.20;99.90;;;;;;5026806;28;20060;-63
2022/07/27 06:11:14;;;;;;;7.45;3.28;;;15.30;99.90;;;;;;5029075;28;20073;-64
2022/07/27 06:13:40;;;;;;;8.23;3.65;;;15.30;99.90;;;;;;5029391;28;20029;-63
2022/07/27 06:16:05;;;;;;;6.88;4.00;;;15.40;99.90;;;;;;5029330;28;20044;-63
2022/07/27 06:18:31;;;;;;;12.85;3.78;;;15.40;99.90;;;;;;5027857;28;20126;-63
2022/07/27 06:20:58;;;;;;;15.45;4.30;;;15.40;99.90;;;;;;5029912;28;20045;-62
2022/07/27 06:23:23;;;;;;;14.50;3.78;;;15.50;99.90;;;;;;5027600;28;20030;-62
2022/07/27 06:25:49;;;;;;;6.00;3.65;;;15.60;99.90;;;;;;5030034;28;20055;-62
2022/07/27 06:28:14;;;;;;;8.32;4.03;;;15.70;99.90;;;;;;5028976;28;20029;-62
2022/07/27 06:30:41;;;;;;;12.63;3.78;;;15.70;99.90;;;;;;5029437;28;20524;-61
2022/07/27 06:33:07;;;;;;;10.20;3.08;;;15.80;99.90;;;;;;5031572;28;20112;-63
2022/07/27 06:35:33;;;;;;;11.10;3.83;;;15.90;99.90;;;;;;5032860;28;20101;-63
2022/07/27 06:37:59;;;;;;;5.57;3.10;;;16.00;99.90;;;;;;5031070;28;20391;-63
2022/07/27 06:40:25;;;;;;;6.10;3.28;;;16.00;99.90;;;;;;5032895;28;20097;-64
2022/07/27 06:42:50;;;;;;;6.68;2.90;;;16.00;99.90;;;;;;5032432;28;20053;-63
2022/07/27 06:45:16;;;;;;;8.07;3.20;;;16.10;99.90;;;;;;5032844;28;20541;-62
2022/07/27 06:47:41;;;;;;;8.50;2.85;;;16.20;99.90;;;;;;5029972;28;20037;-63
2022/07/27 06:50:08;;;;;;;9.98;3.50;;;16.20;99.90;;;;;;5032558;28;20041;-63
2022/07/27 06:52:34;;;;;;;8.15;2.40;;;16.20;99.90;;;;;;5031615;28;20021;-64
2022/07/27 06:54:59;;;;;;;9.43;3.13;;;16.20;99.90;;;;;;5032480;28;20040;-64
2022/07/27 06:57:25;;;;;;;5.85;2.58;;;16.30;99.90;;;;;;5032311;28;20434;-64
2022/07/27 06:59:50;;;;;;;13.77;3.35;;;16.40;99.90;;;;;;5031245;28;20072;-64
2022/07/27 07:02:17;;;;;;;8.18;2.97;;;16.50;99.90;;;;;;5032257;28;20484;-63
2022/07/27 07:04:43;;;;;;;6.88;2.45;;;16.60;99.90;;;;;;5032504;28;20036;-63
2022/07/27 07:07:08;;;;;;;6.95;2.20;;;16.70;99.90;;;;;;5032212;28;20033;-64
2022/07/27 07:09:34;;;;;;;8.68;2.45;;;16.60;99.90;;;;;;5030164;28;20037;-63
2022/07/27 07:12:01;;;;;;;6.20;1.88;;;16.60;99.90;;;;;;5030161;28;20026;-63
2022/07/27 07:14:27;;;;;;;8.13;1.77;;;16.70;99.90;;;;;;5032019;28;20028;-64
2022/07/27 07:16:53;;;;;;;5.68;2.15;;;16.60;99.90;;;;;;5032131;28;20026;-65
2022/07/27 07:19:18;;;;;;;12.07;2.33;;;16.50;99.90;;;;;;5030861;28;20026;-63
2022/07/27 07:21:44;;;;;;;6.05;1.58;;;16.50;99.90;;;;;;5031821;28;20029;-64
2022/07/27 07:24:10;;;;;;;5.22;1.40;;;16.50;99.90;;;;;;5028649;28;20448;-64
2022/07/27 07:26:38;;;;;;;5.07;1.15;;;16.50;99.90;;;;;;5030857;28;20029;-63
2022/07/27 07:29:03;;;;;;;3.42;0.90;;;16.60;99.90;;;;;;5031553;28;20026;-64
2022/07/27 07:31:29;;;;;;;2.55;1.30;;;16.50;99.90;;;;;;5029809;28;20037;-63
2022/07/27 07:33:54;;;;;;;3.85;1.05;;;16.60;99.90;;;;;;5030811;28;20033;-63
2022/07/27 07:36:20;;;;;;;3.95;0.95;;;16.60;99.90;;;;;;5031285;28;20492;-64
2022/07/27 07:38:45;;;;;;;6.60;1.40;;;16.70;99.90;;;;;;5029610;28;20018;-64
2022/07/27 07:41:12;;;;;;;5.65;1.17;;;16.80;99.90;;;;;;5030988;28;20115;-64
2022/07/27 07:43:38;;;;;;;3.75;1.17;;;16.80;99.90;;;;;;5030263;28;20036;-64
2022/07/27 07:46:04;;;;;;;5.85;1.40;;;16.80;99.90;;;;;;5030366;28;20112;-65
2022/07/27 07:48:30;;;;;;;4.47;1.27;;;16.90;99.90;;;;;;5031638;28;20172;-63
2022/07/27 07:50:55;;;;;;;7.35;1.40;;;17.00;99.90;;;;;;5031510;28;20028;-64
2022/07/27 07:53:22;;;;;;;4.88;1.30;;;16.90;99.90;;;;;;5030194;28;20377;-64
2022/07/27 07:55:48;;;;;;;4.43;1.20;;;17.10;99.90;;;;;;5031257;28;20044;-64
2022/07/27 07:58:13;;;;;;;4.60;1.10;;;17.10;99.90;;;;;;5031558;28;20022;-64
2022/07/27 08:00:40;;;;;;;6.47;1.58;;;17.20;99.90;;;;;;5031365;28;20022;-64
2022/07/27 08:03:06;;;;;;;7.75;1.60;;;17.10;99.90;;;;;;5029407;28;20083;-64
2022/07/27 08:05:31;;;;;;;7.05;1.60;;;17.10;99.90;;;;;;5031087;28;20423;-64
2022/07/27 08:07:57;;;;;;;6.43;1.20;;;17.10;99.90;;;;;;5029464;28;20372;-65
2022/07/27 08:10:23;;;;;;;8.25;1.05;;;17.20;99.90;;;;;;5012813;28;20079;-64
2022/07/27 08:12:52;;;;;;;5.85;1.52;;;17.20;99.90;;;;;;5012810;28;20025;-64
2022/07/27 08:15:18;;;;;;;3.53;1.23;;;17.20;99.90;;;;;;5030956;28;20087;-64
2022/07/27 08:17:44;;;;;;;4.93;1.27;;;17.20;99.90;;;;;;5030944;28;20021;-64
2022/07/27 08:20:11;;;;;;;6.88;1.02;;;17.30;99.90;;;;;;5030112;28;20047;-65
2022/07/27 08:22:37;;;;;;;7.10;1.20;;;17.40;99.90;;;;;;5028830;28;20110;-64
2022/07/27 08:25:04;;;;;;;4.80;0.90;;;17.60;99.90;;;;;;5030893;28;20715;-64
2022/07/27 08:27:30;;;;;;;2.78;0.85;;;17.80;99.90;;;;;;5030687;28;20067;-64
2022/07/27 08:29:56;;;;;;;5.90;1.15;;;18.00;99.90;;;;;;5029290;28;20057;-64
2022/07/27 08:32:21;;;;;;;4.13;0.82;;;18.00;99.90;;;;;;5030580;28;20060;-65
2022/07/27 08:34:47;;;;;;;4.40;0.70;;;18.20;99.90;;;;;;5030649;28;20057;-64
2022/07/27 08:37:12;;;;;;;7.07;1.00;;;18.20;99.90;;;;;;5026177;28;20028;-64
2022/07/27 08:39:38;;;;;;;2.65;0.77;;;18.30;99.90;;;;;;5017486;28;20021;-65
2022/07/27 08:42:08;;;;;;;7.10;1.00;;;18.30;99.90;;;;;;5012172;28;20481;-64
2022/07/27 08:44:34;;;;;;;4.28;1.05;;;18.20;99.90;;;;;;5030498;28;20025;-64
2022/07/27 08:47:01;;;;;;;6.38;1.25;;;18.10;99.90;;;;;;5013232;28;20483;-64
2022/07/27 08:49:28;;;;;;;4.88;1.08;;;18.10;99.90;;;;;;5054446;22;20688;-62
2022/07/27 08:51:53;;;;;;;4.32;0.98;;;18.20;99.90;;;;;;5020145;28;20042;-62
2022/07/27 08:54:20;;;;;;;3.08;0.90;;;18.10;99.90;;;;;;5027933;28;20038;-63
2022/07/27 08:56:46;;;;;;;4.72;1.20;;;18.10;99.90;;;;;;5029850;28;20104;-63
2022/07/27 08:59:12;;;;;;;3.97;1.10;;;18.20;99.90;;;;;;5029858;28;20156;-61
2022/07/27 09:01:38;;;;;;;4.50;0.85;;;18.30;99.90;;;;;;5031184;28;20614;-64
2022/07/27 09:04:03;;;;;;;7.10;1.27;;;18.30;99.90;;;;;;5030285;28;20075;-63
2022/07/27 09:06:41;;;;;;;2.55;0.73;;;18.40;99.90;;;;;;5031439;28;20033;-63
2022/07/27 09:09:06;;;;;;;5.28;0.85;;;18.40;99.90;;;;;;5030361;28;20021;-64
2022/07/27 09:11:35;;;;;;;5.55;1.15;;;18.50;99.90;;;;;;5030987;28;20550;-64
2022/07/27 09:14:02;;;;;;;4.72;0.90;;;18.70;99.90;;;;;;5027448;28;20018;-62
2022/07/27 09:16:31;;;;;;;2.47;0.60;;;18.90;99.90;;;;;;5029970;28;20105;-62
2022/07/27 09:19:05;;;;;;;6.80;0.82;;;18.80;99.90;;;;;;5031462;28;20211;-63
2022/07/27 09:21:32;;;;;;;3.28;0.88;;;18.80;99.90;;;;;;5030801;28;20013;-63
2022/07/27 09:24:12;;;;;;;9.52;0.85;;;19.00;99.90;;;;;;5030301;28;20048;-63
2022/07/27 09:26:38;;;;;;;6.75;1.00;;;19.30;99.90;;;;;;5007560;28;20025;-63
2022/07/27 09:29:05;;;;;;;4.43;0.90;;;19.30;99.90;;;;;;5024802;28;20018;-63
2022/07/27 09:31:38;;;;;;;5.80;0.90;;;19.10;99.90;;;;;;5029168;28;20387;-65
2022/07/27 09:34:05;;;;;;;4.50;0.75;;;19.00;99.90;;;;;;5029619;28;20034;-63
2022/07/27 09:36:31;;;;;;;3.78;0.73;;;18.90;99.90;;;;;;5024735;28;20080;-63
2022/07/27 09:39:04;;;;;;;3.28;0.80;;;18.90;99.90;;;;;;5029294;28;20435;-63
2022/07/27 09:41:44;;;;;;;3.25;0.82;;;19.00;99.90;;;;;;5024450;28;20028;-64
2022/07/27 09:44:10;;;;;;;3.63;0.82;;;19.10;99.90;;;;;;5029264;28;20032;-62
2022/07/27 09:46:40;;;;;;;2.33;0.90;;;19.20;99.90;;;;;;5030083;28;20049;-63
2022/07/27 09:49:31;;;;;;;4.43;0.85;;;19.20;99.90;;;;;;5031023;28;20029;-63
2022/07/27 09:52:02;;;;;;;2.45;0.77;;;19.30;99.90;;;;;;5030589;28;20090;-64
2022/07/27 09:54:42;;;;;;;0.57;0.45;;;19.40;99.90;;;;;;5012260;28;20040;-62
2022/07/27 09:57:07;;;;;;;3.67;0.68;;;19.60;99.90;;;;;;5029812;28;20021;-64
2022/07/27 09:59:33;;;;;;;4.93;0.70;;;19.70;99.90;;;;;;5030822;28;20032;-64
2022/07/27 10:02:00;;;;;;;4.55;0.73;;;19.90;99.90;;;;;;5030653;28;20048;-64
2022/07/27 10:04:25;;;;;;;4.72;0.85;;;20.10;99.90;;;;;;5028074;28;20021;-63
2022/07/27 10:06:52;;;;;;;3.67;0.82;;;20.10;99.90;;;;;;5031451;28;20086;-64
2022/07/27 10:09:18;;;;;;;4.45;0.68;;;20.20;99.90;;;;;;5033903;28;20072;-63
2022/07/27 10:11:46;;;;;;;3.13;0.80;;;20.00;99.90;;;;;;5034285;28;20025;-64
2022/07/27 10:14:12;;;;;;;3.78;0.82;;;19.90;99.90;;;;;;5033133;28;20515;-64
2022/07/27 10:16:38;;;;;;;8.18;0.90;;;19.90;99.90;;;;;;5034642;28;20045;-64
2022/07/27 10:19:04;;;;;;;3.60;1.00;;;20.00;99.90;;;;;;5034297;28;20025;-63
2022/07/27 10:21:31;;;;;;;2.30;1.00;;;20.10;99.90;;;;;;5034088;28;20029;-64
2022/07/27 10:23:59;;;;;;;3.17;0.90;;;20.10;99.90;;;;;;5033351;28;20391;-64
2022/07/27 10:26:24;;;;;;;3.33;0.88;;;20.20;99.90;;;;;;5034301;28;20032;-64
2022/07/27 10:28:59;;;;;;;3.17;0.95;;;20.20;99.90;;;;;;5034183;28;20026;-64
2022/07/27 10:31:39;;;;;;;5.88;0.82;;;20.40;99.90;;;;;;5034268;28;20530;-63
2022/07/27 10:34:06;;;;;;;8.77;1.00;;;20.10;99.90;;;;;;5032760;28;20095;-64
2022/07/27 10:36:32;;;;;;;1.58;0.90;;;20.10;99.90;;;;;;5034214;28;20516;-64
2022/07/27 10:39:03;;;;;;;1.98;0.90;;;20.40;99.90;;;;;;5032202;28;20045;-63
2022/07/27 10:41:42;;;;;;;3.85;0.75;;;20.50;99.90;;;;;;5031206;28;20029;-63
2022/07/27 10:44:16;;;;;;;3.25;0.90;;;20.30;99.90;;;;;;5032552;28;20014;-64
2022/07/27 10:46:43;;;;;;;1.27;0.70;;;20.20;99.90;;;;;;5034034;28;20041;-63
2022/07/27 10:49:20;;;;;;;2.05;0.60;;;20.50;99.90;;;;;;5033952;28;20026;-64
2022/07/27 10:51:46;;;;;;;2.83;0.80;;;21.10;99.90;;;;;;5033557;28;20033;-63
2022/07/27 10:54:35;;;;;;;3.65;0.80;;;21.60;99.90;;;;;;5032275;28;20147;-63
2022/07/27 10:57:03;;;;;;;3.95;1.00;;;21.80;99.90;;;;;;5030108;28;20577;-64
2022/07/27 10:59:37;;;;;;;3.42;0.90;;;22.30;99.90;;;;;;5033497;28;20036;-62
2022/07/27 11:02:04;;;;;;;5.22;1.30;;;22.20;99.90;;;;;;5033417;28;20113;-64
2022/07/27 11:04:31;;;;;;;3.80;1.10;;;21.60;99.90;;;;;;5031595;28;20056;-64
2022/07/27 11:07:01;;;;;;;5.13;1.10;;;21.40;99.90;;;;;;5029997;28;20094;-64
2022/07/27 11:09:40;;;;;;;3.65;1.08;;;21.30;99.90;;;;;;5031927;28;20115;-63
2022/07/27 11:12:08;;;;;;;2.80;1.10;;;21.00;99.90;;;;;;5033204;28;20567;-64
2022/07/27 11:14:44;;;;;;;3.10;1.38;;;21.10;99.90;;;;;;5032271;28;20151;-63
2022/07/27 11:17:10;;;;;;;2.47;1.08;;;21.10;99.90;;;;;;5033380;28;20119;-63
2022/07/27 11:19:35;;;;;;;11.15;1.92;;;20.80;99.90;;;;;;5033265;28;20057;-63
2022/07/27 11:22:02;;;;;;;1.85;1.35;;;20.80;99.90;;;;;;5033290;28;20071;-62
2022/07/27 11:24:27;;;;;;;3.40;1.27;;;21.30;99.90;;;;;;5031661;28;20033;-64
2022/07/27 11:26:53;;;;;;;2.65;1.45;;;21.40;99.90;;;;;;5032519;28;20048;-64
2022/07/27 11:29:22;;;;;;;2.10;1.15;;;21.40;99.90;;;;;;5031389;28;20021;-64
2022/07/27 11:31:50;;;;;;;5.65;1.52;;;21.50;99.90;;;;;;5032963;28;20021;-64
2022/07/27 11:34:16;;;;;;;3.38;1.33;;;21.90;99.90;;;;;;5032419;28;20440;-64
2022/07/27 11:36:44;;;;;;;3.83;1.25;;;22.30;99.90;;;;;;5033382;28;20018;-64
2022/07/27 11:39:15;;;;;;;3.55;1.55;;;22.20;99.90;;;;;;5032374;28;20037;-63
2022/07/27 11:41:42;;;;;;;4.88;1.50;;;22.50;99.90;;;;;;5032758;28;20018;-64
2022/07/27 11:44:10;;;;;;;2.58;1.33;;;22.40;99.90;;;;;;5031369;28;20021;-64
2022/07/27 11:46:44;;;;;;;2.97;1.63;;;22.50;99.90;;;;;;5032960;28;20021;-64
2022/07/27 11:49:11;;;;;;;3.10;1.90;;;22.20;99.90;;;;;;5033005;28;20391;-64
2022/07/27 11:51:48;;;;;;;6.35;1.50;;;22.40;99.90;;;;;;5032443;28;20443;-64
2022/07/27 11:54:23;;;;;;;1.83;1.17;;;22.90;99.90;;;;;;5031045;28;20341;-63
2022/07/27 11:57:01;;;;;;;4.20;1.40;;;23.10;99.90;;;;;;5033216;28;20442;-63
2022/07/27 11:59:32;;;;;;;4.00;1.75;;;23.50;99.90;;;;;;5032990;28;20455;-64
2022/07/27 12:02:00;;;;;;;2.53;1.60;;;23.50;99.90;;;;;;5032763;28;20052;-63
2022/07/27 12:04:30;;;;;;;5.60;1.90;;;23.00;99.90;;;;;;5022662;28;20029;-64
2022/07/27 12:07:09;;;;;;;7.55;2.03;;;23.00;99.90;;;;;;5026647;28;20025;-63
2022/07/27 12:09:43;;;;;;;3.58;2.30;;;23.30;99.90;;;;;;5024820;28;20116;-64
2022/07/27 12:12:14;;;;;;;9.38;2.15;;;23.70;99.90;;;;;;5032265;28;20087;-64
2022/07/27 12:14:41;;;;;;;3.50;1.80;;;24.10;99.90;;;;;;5031084;28;20029;-64
2022/07/27 12:17:09;;;;;;;3.42;2.30;;;24.60;99.90;;;;;;5032422;28;20716;-64
2022/07/27 12:19:34;;;;;;;5.65;2.70;;;24.40;99.90;;;;;;5032191;28;20555;-64
2022/07/27 12:22:01;;;;;;;4.05;2.80;;;24.10;99.90;;;;;;5031811;28;20075;-63
2022/07/27 12:24:38;;;;;;;4.60;2.67;;;23.10;99.90;;;;;;5031096;28;20033;-64
2022/07/27 12:27:12;;;;;;;9.38;3.10;;;22.20;99.90;;;;;;5032081;28;20052;-64
2022/07/27 12:29:55;;;;;;;9.05;3.42;;;21.80;99.90;;;;;;5031565;28;20029;-63
2022/07/27 12:32:21;;;;;;;6.10;3.35;;;21.60;99.90;;;;;;5031302;28;20096;-63
2022/07/27 12:34:47;;;;;;;3.35;3.00;;;21.60;99.90;;;;;;5030733;28;20120;-64
2022/07/27 12:37:12;;;;;;;10.07;2.83;;;21.60;99.90;;;;;;5031681;28;20478;-64
2022/07/27 12:39:41;;;;;;;4.15;2.30;;;21.50;99.90;;;;;;5029943;28;20108;-64
2022/07/27 12:42:08;;;;;;;3.63;1.95;;;21.50;99.90;;;;;;5031322;28;20032;-63
2022/07/27 12:44:35;;;;;;;2.65;1.55;;;21.50;99.90;;;;;;5030204;28;20531;-64
2022/07/27 12:47:45;;;;;;;5.05;1.63;;;21.60;99.90;;;;;;5031259;28;20490;-63